createdAt,value
2022-11-15T00:00:58.140Z,98693.02
2022-11-15T00:03:27.649Z,98690.43
2022-11-15T00:05:54.499Z,98688.65
2022-11-15T00:08:21.633Z,98686.02
2022-11-15T00:11:02.288Z,98681.90
2022-11-15T00:13:29.335Z,98685.48
2022-11-15T00:16:01.042Z,98681.68
2022-11-15T00:18:28.093Z,98680.83
2022-11-15T00:20:54.733Z,98675.65
2022-11-15T00:23:21.272Z,98670.33
2022-11-15T00:25:47.733Z,98668.48
2022-11-15T00:28:14.249Z,98671.27
2022-11-15T00:30:40.681Z,98663.59
2022-11-15T00:33:07.947Z,98667.70
2022-11-15T00:35:35.721Z,98662.73
2022-11-15T00:38:02.994Z,98661.20
2022-11-15T00:40:30.143Z,98657.94
2022-11-15T00:42:56.937Z,98654.14
2022-11-15T00:45:23.732Z,98649.89
2022-11-15T00:47:50.306Z,98647.98
2022-11-15T00:50:17.608Z,98643.69
2022-11-15T00:52:44.992Z,98639.54
2022-11-15T00:55:16.711Z,98638.51
2022-11-15T00:57:43.500Z,98630.02
2022-11-15T01:00:11.434Z,98631.95
2022-11-15T01:02:38.427Z,98629.88
2022-11-15T01:05:05.835Z,98629.00
2022-11-15T01:07:32.732Z,98630.73
2022-11-15T01:09:59.327Z,98627.20
2022-11-15T01:12:25.817Z,98623.29
2022-11-15T01:14:52.251Z,98624.48
2022-11-15T01:17:18.790Z,98620.37
2022-11-15T01:19:45.248Z,98624.68
2022-11-15T01:22:11.656Z,98624.84
2022-11-15T01:24:38.210Z,98623.30
2022-11-15T01:27:04.755Z,98619.17
2022-11-15T01:29:31.294Z,98621.52
2022-11-15T01:31:57.833Z,98618.05
2022-11-15T01:34:24.274Z,98614.98
2022-11-15T01:36:51.211Z,98610.96
2022-11-15T01:39:17.939Z,98607.74
2022-11-15T01:41:44.920Z,98606.55
2022-11-15T01:44:42.594Z,98604.82
2022-11-15T01:47:26.791Z,98604.31
2022-11-15T01:50:01.816Z,98602.43
2022-11-15T01:52:32.045Z,98608.60
2022-11-15T01:55:08.901Z,98608.96
2022-11-15T01:57:36.115Z,98604.86
2022-11-15T02:00:05.793Z,98603.01
2022-11-15T02:02:34.051Z,98604.42
2022-11-15T02:05:01.007Z,98602.60
2022-11-15T02:07:27.626Z,98599.41
2022-11-15T02:09:55.508Z,98592.25
2022-11-15T02:12:23.136Z,98593.65
2022-11-15T02:14:53.813Z,98593.31
2022-11-15T02:18:02.377Z,98589.58
2022-11-15T02:20:42.602Z,98588.43
2022-11-15T02:23:56.757Z,98590.30
2022-11-15T02:26:47.670Z,98580.58
2022-11-15T02:29:36.400Z,98583.37
2022-11-15T02:32:24.235Z,98578.62
2022-11-15T02:35:17.804Z,98579.87
2022-11-15T02:37:55.450Z,98578.39
2022-11-15T02:40:43.698Z,98576.23
2022-11-15T02:43:16.799Z,98575.08
2022-11-15T02:45:52.096Z,98572.02
2022-11-15T02:48:19.503Z,98566.58
2022-11-15T02:50:46.967Z,98570.48
2022-11-15T02:53:15.549Z,98568.29
2022-11-15T02:55:46.905Z,98562.81
2022-11-15T02:58:32.122Z,98565.36
2022-11-15T03:01:05.524Z,98565.58
2022-11-15T03:03:38.361Z,98563.55
2022-11-15T03:06:24.584Z,98569.94
2022-11-15T03:09:09.286Z,98568.92
2022-11-15T03:11:41.824Z,98568.61
2022-11-15T03:14:28.931Z,98567.45
2022-11-15T03:17:16.976Z,98565.44
2022-11-15T03:19:51.093Z,98559.55
2022-11-15T03:22:21.325Z,98556.89
2022-11-15T03:24:53.696Z,98557.09
2022-11-15T03:27:26.545Z,98555.41
2022-11-15T03:30:01.730Z,98552.87
2022-11-15T03:32:32.478Z,98546.74
2022-11-15T03:35:20.420Z,98544.20
2022-11-15T03:38:02.182Z,98542.49
2022-11-15T03:40:36.900Z,98542.70
2022-11-15T03:43:37.791Z,98543.09
2022-11-15T03:46:12.152Z,98541.08
2022-11-15T03:48:44.671Z,98541.61
2022-11-15T03:51:11.908Z,98541.61
2022-11-15T03:53:38.415Z,98541.95
2022-11-15T03:56:05.052Z,98535.16
2022-11-15T03:58:31.687Z,98536.55
2022-11-15T04:00:58.213Z,98532.15
2022-11-15T04:03:24.777Z,98527.92
2022-11-15T04:05:51.414Z,98528.31
2022-11-15T04:08:18.159Z,98529.73
2022-11-15T04:10:44.743Z,98526.35
2022-11-15T04:13:11.213Z,98521.08
2022-11-15T04:15:37.663Z,98519.05
2022-11-15T04:18:04.152Z,98516.36
2022-11-15T04:20:32.288Z,98514.69
2022-11-15T04:23:00.783Z,98512.52
2022-11-15T04:25:32.004Z,98505.03
2022-11-15T04:27:58.892Z,98505.38
2022-11-15T04:30:25.381Z,98504.53
2022-11-15T04:32:51.855Z,98502.81
2022-11-15T04:35:18.350Z,98502.84
2022-11-15T04:37:49.139Z,98505.94
2022-11-15T04:40:16.380Z,98503.88
2022-11-15T04:42:43.443Z,98500.13
2022-11-15T04:45:11.028Z,98499.61
2022-11-15T04:47:37.548Z,98503.02
2022-11-15T04:50:04.663Z,98500.64
2022-11-15T04:52:31.115Z,98497.92
2022-11-15T04:54:57.553Z,98493.48
2022-11-15T04:57:24.049Z,98494.02
2022-11-15T04:59:50.584Z,98493.85
2022-11-15T05:02:17.104Z,98492.66
2022-11-15T05:04:43.843Z,98486.22
2022-11-15T05:07:10.389Z,98486.59
2022-11-15T05:09:36.971Z,98482.52
2022-11-15T05:12:03.573Z,98480.86
2022-11-15T05:14:30.120Z,98473.91
2022-11-15T05:16:56.651Z,98468.32
2022-11-15T05:19:23.191Z,98468.52
2022-11-15T05:21:49.727Z,98466.17
2022-11-15T05:24:16.152Z,98461.62
2022-11-15T05:26:42.639Z,98458.75
2022-11-15T05:29:10.684Z,98460.46
2022-11-15T05:31:41.687Z,98461.16
2022-11-15T05:34:08.380Z,98455.55
2022-11-15T05:36:42.968Z,98457.11
2022-11-15T05:39:09.852Z,98458.66
2022-11-15T05:41:48.782Z,98459.36
2022-11-15T05:44:18.883Z,98456.61
2022-11-15T05:46:46.364Z,98456.95
2022-11-15T05:49:17.021Z,98455.73
2022-11-15T05:51:45.579Z,98457.59
2022-11-15T05:54:12.532Z,98457.05
2022-11-15T05:56:39.897Z,98455.34
2022-11-15T05:59:08.361Z,98454.13
2022-11-15T06:01:35.030Z,98457.19
2022-11-15T06:04:01.573Z,98452.73
2022-11-15T06:06:29.548Z,98450.32
2022-11-15T06:08:56.199Z,98444.86
2022-11-15T06:11:22.837Z,98444.52
2022-11-15T06:13:49.583Z,98445.70
2022-11-15T06:16:16.048Z,98448.92
2022-11-15T06:18:42.488Z,98446.13
2022-11-15T06:21:08.999Z,98442.96
2022-11-15T06:23:36.446Z,98440.23
2022-11-15T06:26:03.925Z,98439.70
2022-11-15T06:28:34.324Z,98439.81
2022-11-15T06:31:09.008Z,98438.86
2022-11-15T06:33:35.958Z,98437.66
2022-11-15T06:36:11.904Z,98432.33
2022-11-15T06:38:41.246Z,98434.64
2022-11-15T06:41:10.019Z,98428.05
2022-11-15T06:43:37.376Z,98434.98
2022-11-15T06:46:05.138Z,98432.22
2022-11-15T06:48:33.211Z,98429.75
2022-11-15T06:51:01.098Z,98427.02
2022-11-15T06:53:29.143Z,98420.73
2022-11-15T06:56:00.310Z,98416.93
2022-11-15T06:58:26.854Z,98418.20
2022-11-15T07:00:53.668Z,98419.98
2022-11-15T07:03:20.140Z,98420.48
2022-11-15T07:05:55.079Z,98416.63
2022-11-15T07:08:23.360Z,98414.93
2022-11-15T07:10:50.310Z,98416.98
2022-11-15T07:13:17.158Z,98411.98
2022-11-15T07:15:43.694Z,98409.01
2022-11-15T07:18:10.351Z,98410.77
2022-11-15T07:20:36.974Z,98402.40
2022-11-15T07:23:05.230Z,98402.35
2022-11-15T07:25:32.330Z,98403.98
2022-11-15T07:28:00.535Z,98401.57
2022-11-15T07:30:28.362Z,98397.33
2022-11-15T07:33:00.139Z,98388.80
2022-11-15T07:35:28.098Z,98385.70
2022-11-15T07:37:59.684Z,98382.34
2022-11-15T07:40:31.479Z,98380.13
2022-11-15T07:43:02.413Z,98375.68
2022-11-15T07:45:29.313Z,98371.88
2022-11-15T07:47:56.678Z,98364.05
2022-11-15T07:50:25.058Z,98364.98
2022-11-15T07:52:59.988Z,98359.45
2022-11-15T07:55:28.686Z,98353.87
2022-11-15T07:58:01.637Z,98353.48
2022-11-15T08:00:28.117Z,98350.59
2022-11-15T08:03:06.540Z,98346.20
2022-11-15T08:05:33.381Z,98342.04
2022-11-15T08:08:00.223Z,98335.70
2022-11-15T08:10:28.239Z,98332.38
2022-11-15T08:13:11.790Z,98332.70
2022-11-15T08:15:38.946Z,98324.31
2022-11-15T08:18:16.840Z,98319.61
2022-11-15T08:20:44.259Z,98312.23
2022-11-15T08:23:12.867Z,98312.27
2022-11-15T08:25:39.899Z,98312.44
2022-11-15T08:28:08.805Z,98307.89
2022-11-15T08:30:38.240Z,98302.90
2022-11-15T08:33:04.746Z,98298.01
2022-11-15T08:35:31.592Z,98297.71
2022-11-15T08:37:58.121Z,98299.40
2022-11-15T08:40:24.991Z,98300.77
2022-11-15T08:42:51.747Z,98297.25
2022-11-15T08:45:18.355Z,98294.77
2022-11-15T08:47:47.413Z,98290.44
2022-11-15T08:50:17.793Z,98295.86
2022-11-15T08:52:44.349Z,98291.16
2022-11-15T08:55:11.096Z,98287.05
2022-11-15T08:57:37.945Z,98284.27
2022-11-15T09:00:05.194Z,98279.45
2022-11-15T09:02:31.667Z,98279.13
2022-11-15T09:04:58.186Z,98277.97
2022-11-15T09:07:24.919Z,98275.45
2022-11-15T09:09:51.578Z,98273.45
2022-11-15T09:12:18.219Z,98272.45
2022-11-15T09:14:44.870Z,98269.68
2022-11-15T09:17:11.432Z,98265.41
2022-11-15T09:19:37.948Z,98265.42
2022-11-15T09:22:07.869Z,98261.14
2022-11-15T09:24:35.141Z,98258.63
2022-11-15T09:27:01.660Z,98256.04
2022-11-15T09:29:28.126Z,98256.77
2022-11-15T09:31:54.748Z,98255.50
2022-11-15T09:34:21.286Z,98253.21
2022-11-15T09:36:48.132Z,98247.09
2022-11-15T09:39:14.861Z,98239.80
2022-11-15T09:41:59.583Z,98238.71
2022-11-15T09:44:56.711Z,98234.38
2022-11-15T09:47:35.572Z,98225.67
2022-11-15T09:50:09.041Z,98222.46
2022-11-15T09:52:37.964Z,98217.20
2022-11-15T09:55:06.209Z,98217.29
2022-11-15T09:57:42.488Z,98208.56
2022-11-15T10:03:45.095Z,98203.06
2022-11-15T10:06:25.748Z,98189.25
2022-11-15T10:09:00.539Z,98186.58
2022-11-15T10:11:37.354Z,98182.02
2022-11-15T10:14:36.284Z,98179.73
2022-11-15T10:17:28.015Z,98171.46
2022-11-15T10:20:06.027Z,98167.48
2022-11-15T10:22:54.086Z,98160.55
2022-11-15T10:25:20.677Z,98157.06
2022-11-15T10:28:02.122Z,98158.42
2022-11-15T10:30:39.028Z,98155.67
2022-11-15T10:33:18.432Z,98152.92
2022-11-15T10:35:44.918Z,98156.17
2022-11-15T10:38:12.859Z,98148.90
2022-11-15T10:40:41.790Z,98147.69
2022-11-15T10:43:11.148Z,98138.41
2022-11-15T10:45:39.024Z,98135.81
2022-11-15T10:48:14.678Z,98130.10
2022-11-15T10:50:43.549Z,98127.36
2022-11-15T10:53:46.931Z,98127.08
2022-11-15T10:56:15.787Z,98121.31
2022-11-15T10:58:52.621Z,98111.67
2022-11-15T11:01:23.696Z,98109.47
2022-11-15T11:04:04.848Z,98105.31
2022-11-15T11:06:46.730Z,98097.80
2022-11-15T11:09:36.790Z,98091.80
2022-11-15T11:12:06.735Z,98089.58
2022-11-15T11:14:38.629Z,98088.10
2022-11-15T11:17:18.604Z,98082.07
2022-11-15T11:19:48.146Z,98080.97
2022-11-15T11:22:41.516Z,98075.83
2022-11-15T11:25:36.651Z,98072.34
2022-11-15T11:28:32.733Z,98059.08
2022-11-15T11:31:26.438Z,98053.02
2022-11-15T11:34:05.679Z,98049.98
2022-11-15T11:36:35.080Z,98044.52
2022-11-15T11:39:18.210Z,98039.24
2022-11-15T11:41:56.556Z,98034.14
2022-11-15T11:44:32.178Z,98032.33
2022-11-15T11:47:07.829Z,98030.19
2022-11-15T11:49:42.440Z,98024.33
2022-11-15T11:52:11.679Z,98016.23
2022-11-15T11:54:59.305Z,98012.73
2022-11-15T11:57:41.096Z,98005.95
2022-11-15T12:00:21.619Z,98003.09
2022-11-15T12:03:01.761Z,98004.31
2022-11-15T12:05:31.745Z,98000.04
2022-11-15T12:08:05.665Z,97998.61
2022-11-15T12:10:34.469Z,98000.14
2022-11-15T12:13:14.375Z,97997.30
2022-11-15T12:15:49.062Z,97999.89
2022-11-15T12:18:17.564Z,97993.20
2022-11-15T12:20:56.467Z,97996.27
2022-11-15T12:23:36.312Z,97991.77
2022-11-15T12:26:16.983Z,97986.88
2022-11-15T12:29:06.475Z,97984.34
2022-11-15T12:31:41.603Z,97981.44
2022-11-15T12:34:17.035Z,97975.85
2022-11-15T12:36:48.032Z,97970.89
2022-11-15T12:39:15.282Z,97969.06
2022-11-15T12:41:44.063Z,97969.98
2022-11-15T12:44:33.427Z,97967.31
2022-11-15T12:47:05.125Z,97959.72
2022-11-15T12:49:31.532Z,97959.87
2022-11-15T12:51:58.062Z,97951.67
2022-11-15T12:54:24.623Z,97948.34
2022-11-15T12:57:03.546Z,97947.96
2022-11-15T13:00:14.829Z,97947.17
2022-11-15T13:02:45.185Z,97944.06
2022-11-15T13:05:14.670Z,97944.90
2022-11-15T13:07:41.265Z,97939.06
2022-11-15T13:10:11.121Z,97937.91
2022-11-15T13:12:37.639Z,97939.96
2022-11-15T13:15:13.234Z,97939.38
2022-11-15T13:17:44.676Z,97940.13
2022-11-15T13:20:14.394Z,97938.19
2022-11-15T13:22:48.648Z,97938.29
2022-11-15T13:25:44.668Z,97939.78
2022-11-15T13:28:17.134Z,97946.20
2022-11-15T13:30:53.870Z,97945.83
2022-11-15T13:33:25.879Z,97940.61
2022-11-15T13:35:58.826Z,97937.10
2022-11-15T13:38:25.228Z,97939.30
2022-11-15T13:40:51.876Z,97937.02
2022-11-15T13:43:28.500Z,97937.32
2022-11-15T13:46:34.033Z,97931.54
2022-11-15T13:49:06.256Z,97920.89
2022-11-15T13:51:53.073Z,97919.34
2022-11-15T13:54:34.510Z,97919.11
2022-11-15T13:57:03.773Z,97918.67
2022-11-15T13:59:34.362Z,97925.10
2022-11-15T14:02:13.433Z,97928.75
2022-11-15T14:04:49.176Z,97933.59
2022-11-15T14:07:21.350Z,97939.25
2022-11-15T14:09:48.671Z,97932.09
2022-11-15T14:12:51.315Z,97926.63
2022-11-15T14:15:32.954Z,97924.36
2022-11-15T14:18:00.012Z,97926.79
2022-11-15T14:20:34.092Z,97929.77
2022-11-15T14:23:06.151Z,97931.45
2022-11-15T14:25:35.114Z,97928.41
2022-11-15T14:28:23.089Z,97929.42
2022-11-15T14:30:50.744Z,97928.11
2022-11-15T14:33:30.938Z,97927.19
2022-11-15T14:35:59.952Z,97926.33
2022-11-15T14:38:27.181Z,97919.94
2022-11-15T14:40:55.179Z,97918.61
2022-11-15T14:43:21.901Z,97913.02
2022-11-15T14:45:48.570Z,97913.13
2022-11-15T14:48:15.283Z,97909.80
2022-11-15T14:50:41.987Z,97914.63
2022-11-15T14:53:13.377Z,97916.58
2022-11-15T14:55:39.941Z,97914.54
2022-11-15T14:58:07.599Z,97909.88
2022-11-15T15:00:35.844Z,97910.42
2022-11-15T15:03:03.128Z,97906.63
2022-11-15T15:05:35.603Z,97900.80
2022-11-15T15:08:03.231Z,97899.37
2022-11-15T15:10:42.237Z,97896.63
2022-11-15T15:13:24.205Z,97890.45
2022-11-15T15:15:52.290Z,97888.02
2022-11-15T15:18:20.755Z,97892.63
2022-11-15T15:20:55.399Z,97896.81
2022-11-15T15:23:22.032Z,97897.73
2022-11-15T15:25:48.995Z,97891.15
2022-11-15T15:28:16.151Z,97891.66
2022-11-15T15:30:42.692Z,97887.97
2022-11-15T15:33:09.130Z,97888.95
2022-11-15T15:35:36.393Z,97891.60
2022-11-15T15:38:03.957Z,97893.39
2022-11-15T15:40:33.403Z,97894.36
2022-11-15T15:43:00.511Z,97888.63
2022-11-15T15:45:27.970Z,97889.16
2022-11-15T15:47:54.619Z,97888.02
2022-11-15T15:50:22.694Z,97882.71
2022-11-15T15:52:50.379Z,97882.45
2022-11-15T15:55:17.106Z,97878.25
2022-11-15T15:57:43.578Z,97878.36
2022-11-15T16:00:10.803Z,97870.04
2022-11-15T16:02:40.429Z,97869.59
2022-11-15T16:05:08.438Z,97869.56
2022-11-15T16:07:35.799Z,97868.73
2022-11-15T16:10:03.985Z,97867.34
2022-11-15T16:12:35.577Z,97863.89
2022-11-15T16:15:03.613Z,97861.11
2022-11-15T16:17:34.562Z,97859.70
2022-11-15T16:20:01.462Z,97860.45
2022-11-15T16:22:27.907Z,97862.05
2022-11-15T16:24:54.344Z,97863.20
2022-11-15T16:27:22.605Z,97864.45
2022-11-15T16:29:49.865Z,97866.23
2022-11-15T16:32:16.949Z,97871.34
2022-11-15T16:34:48.542Z,97875.45
2022-11-15T16:37:24.636Z,97874.54
2022-11-15T16:39:51.585Z,97872.48
2022-11-15T16:42:18.229Z,97867.36
2022-11-15T16:44:44.790Z,97866.20
2022-11-15T16:47:20.636Z,97867.55
2022-11-15T16:49:47.172Z,97861.48
2022-11-15T16:52:17.528Z,97858.84
2022-11-15T16:54:46.794Z,97856.77
2022-11-15T16:57:13.253Z,97858.47
2022-11-15T16:59:39.797Z,97857.36
2022-11-15T17:02:12.604Z,97853.62
2022-11-15T17:04:39.121Z,97852.55
2022-11-15T17:07:05.623Z,97847.90
2022-11-15T17:09:32.199Z,97849.70
2022-11-15T17:11:58.736Z,97844.73
2022-11-15T17:14:25.146Z,97841.48
2022-11-15T17:16:51.611Z,97836.14
2022-11-15T17:19:20.728Z,97832.36
2022-11-15T17:21:48.432Z,97829.95
2022-11-15T17:24:15.336Z,97825.48
2022-11-15T17:26:41.788Z,97825.42
2022-11-15T17:29:08.962Z,97826.39
2022-11-15T17:31:36.507Z,97822.56
2022-11-15T17:34:04.773Z,97820.61
2022-11-15T17:36:31.569Z,97817.06
2022-11-15T17:38:59.810Z,97817.52
2022-11-15T17:41:28.393Z,97817.92
2022-11-15T17:43:59.034Z,97812.80
2022-11-15T17:46:26.595Z,97811.83
2022-11-15T17:48:53.143Z,97807.44
2022-11-15T17:51:19.689Z,97810.34
2022-11-15T17:53:47.548Z,97807.70
2022-11-15T17:56:16.589Z,97803.03
2022-11-15T17:58:54.760Z,97797.84
2022-11-15T18:01:28.651Z,97798.38
2022-11-15T18:03:56.819Z,97797.48
2022-11-15T18:06:24.828Z,97793.86
2022-11-15T18:08:53.751Z,97794.04
2022-11-15T18:11:23.970Z,97793.98
2022-11-15T18:13:53.829Z,97790.80
2022-11-15T18:16:22.713Z,97789.21
2022-11-15T18:18:49.318Z,97792.83
2022-11-15T18:21:18.759Z,97794.63
2022-11-15T18:23:45.802Z,97797.25
2022-11-15T18:26:14.547Z,97798.11
2022-11-15T18:28:44.940Z,97794.63
2022-11-15T18:31:26.024Z,97793.87
2022-11-15T18:33:53.358Z,97788.24
2022-11-15T18:36:22.852Z,97790.79
2022-11-15T18:38:57.552Z,97789.98
2022-11-15T18:41:25.060Z,97787.14
2022-11-15T18:43:51.863Z,97786.39
2022-11-15T18:46:21.062Z,97783.42
2022-11-15T18:48:49.199Z,97780.39
2022-11-15T18:51:18.546Z,97782.31
2022-11-15T18:53:46.367Z,97774.28
2022-11-15T18:56:18.543Z,97772.89
2022-11-15T18:58:54.690Z,97767.02
2022-11-15T19:01:23.663Z,97765.38
2022-11-15T19:03:52.810Z,97766.30
2022-11-15T19:06:22.076Z,97768.20
2022-11-15T19:08:51.215Z,97769.42
2022-11-15T19:11:20.617Z,97772.23
2022-11-15T19:13:47.874Z,97772.36
2022-11-15T19:16:16.166Z,97771.35
2022-11-15T19:18:42.941Z,97769.05
2022-11-15T19:21:14.871Z,97772.81
2022-11-15T19:23:43.148Z,97769.33
2022-11-15T19:26:12.305Z,97772.05
2022-11-15T19:28:39.612Z,97766.00
2022-11-15T19:31:08.609Z,97761.64
2022-11-15T19:33:35.512Z,97764.48
2022-11-15T19:36:04.077Z,97761.43
2022-11-15T19:38:32.035Z,97758.73
2022-11-15T19:41:02.598Z,97759.28
2022-11-15T19:43:30.218Z,97758.29
2022-11-15T19:46:02.318Z,97759.64
2022-11-15T19:48:34.165Z,97760.13
2022-11-15T19:51:10.016Z,97756.73
2022-11-15T19:53:37.236Z,97756.38
2022-11-15T19:56:05.761Z,97751.73
2022-11-15T19:58:32.916Z,97748.20
2022-11-15T20:01:26.779Z,97745.80
2022-11-15T20:03:55.194Z,97742.34
2022-11-15T20:06:24.311Z,97741.34
2022-11-15T20:08:51.128Z,97733.39
2022-11-15T20:11:18.390Z,97735.27
2022-11-15T20:13:45.850Z,97734.30
2022-11-15T20:16:16.839Z,97734.08
2022-11-15T20:18:43.740Z,97736.97
2022-11-15T20:21:10.795Z,97736.90
2022-11-15T20:23:37.301Z,97738.80
2022-11-15T20:26:03.878Z,97731.95
2022-11-15T20:28:30.672Z,97729.75
2022-11-15T20:31:00.397Z,97729.08
2022-11-15T20:33:27.691Z,97723.56
2022-11-15T20:35:54.647Z,97719.77
2022-11-15T20:38:22.312Z,97718.42
2022-11-15T20:40:50.245Z,97718.93
2022-11-15T20:43:19.283Z,97715.14
2022-11-15T20:45:47.323Z,97705.81
2022-11-15T20:48:15.337Z,97704.42
2022-11-15T20:50:44.175Z,97704.96
2022-11-15T20:53:14.762Z,97707.52
2022-11-15T20:55:43.039Z,97706.06
2022-11-15T20:58:11.025Z,97709.33
2022-11-15T21:00:37.719Z,97705.88
2022-11-15T21:03:05.631Z,97700.04
2022-11-15T21:05:34.028Z,97700.11
2022-11-15T21:08:00.753Z,97692.27
2022-11-15T21:10:27.292Z,97691.63
2022-11-15T21:12:53.828Z,97685.44
2022-11-15T21:15:20.342Z,97680.95
2022-11-15T21:17:47.447Z,97680.44
2022-11-15T21:20:14.063Z,97679.92
2022-11-15T21:22:40.606Z,97681.67
2022-11-15T21:25:07.671Z,97675.06
2022-11-15T21:27:34.134Z,97669.04
2022-11-15T21:30:00.750Z,97666.11
2022-11-15T21:32:27.287Z,97663.48
2022-11-15T21:34:53.827Z,97662.06
2022-11-15T21:37:20.295Z,97654.89
2022-11-15T21:39:47.525Z,97652.70
2022-11-15T21:42:14.062Z,97649.95
2022-11-15T21:44:40.602Z,97648.94
2022-11-15T21:47:07.060Z,97646.02
2022-11-15T21:49:33.520Z,97639.34
2022-11-15T21:51:59.986Z,97640.45
2022-11-15T21:54:26.448Z,97637.53
2022-11-15T21:56:52.996Z,97633.02
2022-11-15T21:59:19.492Z,97628.29
2022-11-15T22:01:46.229Z,97635.59
2022-11-15T22:04:13.470Z,97634.17
2022-11-15T22:06:40.424Z,97632.67
2022-11-15T22:09:07.853Z,97629.61
2022-11-15T22:11:34.805Z,97631.52
2022-11-15T22:14:01.960Z,97629.01
2022-11-15T22:16:28.599Z,97629.55
2022-11-15T22:18:55.346Z,97626.36
2022-11-15T22:21:22.193Z,97620.47
2022-11-15T22:23:49.042Z,97613.81
2022-11-15T22:26:23.201Z,97605.58
2022-11-15T22:28:50.931Z,97603.70
2022-11-15T22:31:17.648Z,97599.13
2022-11-15T22:33:44.419Z,97594.47
2022-11-15T22:36:12.506Z,97592.86
2022-11-15T22:38:39.236Z,97586.03
2022-11-15T22:41:05.939Z,97581.28
2022-11-15T22:43:32.594Z,97579.46
2022-11-15T22:46:00.627Z,97577.68
2022-11-15T22:48:35.743Z,97577.66
2022-11-15T22:51:03.829Z,97576.52
2022-11-15T22:53:31.292Z,97574.69
2022-11-15T22:56:00.278Z,97571.99
2022-11-15T22:58:29.188Z,97570.55
2022-11-15T23:00:59.031Z,97568.77
2022-11-15T23:03:27.444Z,97572.19
2022-11-15T23:05:54.691Z,97572.39
2022-11-15T23:08:23.490Z,97571.05
2022-11-15T23:10:50.313Z,97564.74
2022-11-15T23:13:17.041Z,97556.14
2022-11-15T23:15:45.905Z,97551.45
2022-11-15T23:18:12.448Z,97547.29
2022-11-15T23:20:43.490Z,97546.14
2022-11-15T23:23:11.474Z,97544.29
2022-11-15T23:25:38.113Z,97537.75
2022-11-15T23:28:06.006Z,97535.79
2022-11-15T23:30:36.931Z,97536.12
2022-11-15T23:33:03.576Z,97533.38
2022-11-15T23:35:30.040Z,97538.98
2022-11-15T23:37:56.558Z,97536.73
2022-11-15T23:40:23.062Z,97539.33
2022-11-15T23:42:49.639Z,97538.54
2022-11-15T23:45:16.719Z,97534.91
2022-11-15T23:47:44.155Z,97541.84
2022-11-15T23:50:11.103Z,97533.65
2022-11-15T23:52:37.643Z,97529.09
2022-11-15T23:55:04.795Z,97523.20
2022-11-15T23:57:31.264Z,97520.13
